createdAt,value
2022-11-12T00:01:30.752Z,4.08
2022-11-12T00:06:52.058Z,4.02
2022-11-12T00:12:14.651Z,3.96
2022-11-12T00:17:35.923Z,4.07
2022-11-12T00:22:57.017Z,3.90
2022-11-12T00:28:19.686Z,3.97
2022-11-12T00:33:42.480Z,3.88
2022-11-12T00:39:05.174Z,3.79
2022-11-12T00:44:29.534Z,3.80
2022-11-12T00:49:51.175Z,3.79
2022-11-12T00:55:12.770Z,3.77
2022-11-12T01:00:35.394Z,3.80
2022-11-12T01:06:02.277Z,3.74
2022-11-12T01:11:25.438Z,3.76
2022-11-12T01:16:48.154Z,3.79
2022-11-12T01:22:09.735Z,3.75
2022-11-12T01:27:31.366Z,3.68
2022-11-12T01:32:54.345Z,3.69
2022-11-12T01:38:15.562Z,3.69
2022-11-12T01:43:37.130Z,3.59
2022-11-12T01:49:03.734Z,3.73
2022-11-12T01:54:26.860Z,3.72
2022-11-12T01:59:51.201Z,3.66
2022-11-12T02:05:16.102Z,3.66
2022-11-12T02:10:37.617Z,3.70
2022-11-12T02:15:59.535Z,3.71
2022-11-12T02:21:22.833Z,3.70
2022-11-12T02:26:48.302Z,3.65
2022-11-12T02:32:09.714Z,3.46
2022-11-12T02:37:32.708Z,3.47
2022-11-12T02:42:54.241Z,3.53
2022-11-12T02:48:19.158Z,3.36
2022-11-12T02:53:42.274Z,3.46
2022-11-12T02:59:03.603Z,3.45
2022-11-12T03:04:25.115Z,3.37
2022-11-12T03:09:47.747Z,3.40
2022-11-12T03:15:09.686Z,3.34
2022-11-12T03:20:31.346Z,3.30
2022-11-12T03:25:54.281Z,3.26
2022-11-12T03:31:15.778Z,3.19
2022-11-12T03:36:37.179Z,3.22
2022-11-12T03:41:59.676Z,3.21
2022-11-12T03:47:20.868Z,3.13
2022-11-12T03:52:45.764Z,3.05
2022-11-12T03:58:08.724Z,3.02
2022-11-12T04:03:30.448Z,2.99
2022-11-12T04:08:52.053Z,2.80
2022-11-12T04:14:14.557Z,2.94
2022-11-12T04:19:53.418Z,2.88
2022-11-12T04:25:32.583Z,2.81
2022-11-12T04:30:55.330Z,2.78
2022-11-12T04:36:16.779Z,2.93
2022-11-12T04:42:03.599Z,2.93
2022-11-12T04:47:26.828Z,2.91
2022-11-12T04:52:48.051Z,2.81
2022-11-12T04:58:09.238Z,2.79
2022-11-12T05:03:31.792Z,2.74
2022-11-12T05:08:53.081Z,2.69
2022-11-12T05:14:14.369Z,2.64
2022-11-12T05:19:37.009Z,2.51
2022-11-12T05:24:58.418Z,2.58
2022-11-12T05:30:19.985Z,2.47
2022-11-12T05:35:42.923Z,2.41
2022-11-12T05:41:04.646Z,2.45
2022-11-12T05:46:25.862Z,2.39
2022-11-12T05:51:48.567Z,2.33
2022-11-12T05:57:09.770Z,1.92
2022-11-12T06:02:31.033Z,2.23
2022-11-12T06:07:54.253Z,2.25
2022-11-12T06:13:15.513Z,2.10
2022-11-12T06:18:37.614Z,2.14
2022-11-12T06:24:01.497Z,2.11
2022-11-12T06:29:22.682Z,2.13
2022-11-12T06:34:44.203Z,2.12
2022-11-12T06:40:08.538Z,1.96
2022-11-12T06:45:30.072Z,2.13
2022-11-12T06:50:51.428Z,2.27
2022-11-12T06:56:14.844Z,2.22
2022-11-12T07:01:36.290Z,2.34
2022-11-12T07:06:58.378Z,2.33
2022-11-12T07:12:21.697Z,2.34
2022-11-12T07:17:46.443Z,2.39
2022-11-12T07:23:08.468Z,2.45
2022-11-12T07:28:32.102Z,2.50
2022-11-12T07:33:53.986Z,2.58
2022-11-12T07:39:15.348Z,2.17
2022-11-12T07:44:37.919Z,2.59
2022-11-12T07:50:00.413Z,2.69
2022-11-12T07:55:21.883Z,2.62
2022-11-12T08:00:44.514Z,3.13
2022-11-12T08:06:06.586Z,3.57
2022-11-12T08:11:28.153Z,4.06
2022-11-12T08:16:51.087Z,4.30
2022-11-12T08:22:12.473Z,4.16
2022-11-12T08:27:34.083Z,4.32
2022-11-12T08:33:01.947Z,4.42
2022-11-12T08:38:23.860Z,4.78
2022-11-12T08:43:45.510Z,5.64
2022-11-12T08:49:08.532Z,5.99
2022-11-12T08:54:30.475Z,6.72
2022-11-12T08:59:52.011Z,7.53
2022-11-12T09:05:14.788Z,7.89
2022-11-12T09:10:36.862Z,8.32
2022-11-12T09:16:02.491Z,8.36
2022-11-12T09:21:25.683Z,8.86
2022-11-12T09:26:48.164Z,8.54
2022-11-12T09:32:09.679Z,9.12
2022-11-12T09:37:32.574Z,9.07
2022-11-12T09:42:54.466Z,9.04
2022-11-12T09:48:21.527Z,9.56
2022-11-12T09:53:51.755Z,9.62
2022-11-12T09:59:14.434Z,10.03
2022-11-12T10:04:47.688Z,10.01
2022-11-12T10:10:16.237Z,10.07
2022-11-12T10:15:58.049Z,10.48
2022-11-12T10:21:29.377Z,10.62
2022-11-12T10:26:54.422Z,10.69
2022-11-12T10:32:17.564Z,10.52
2022-11-12T10:37:46.870Z,10.23
2022-11-12T10:43:23.022Z,10.53
2022-11-12T10:48:55.513Z,10.69
2022-11-12T10:54:31.220Z,10.68
2022-11-12T11:00:09.722Z,10.85
2022-11-12T11:05:35.450Z,10.79
2022-11-12T11:11:17.798Z,10.74
2022-11-12T11:16:51.308Z,10.56
2022-11-12T11:22:39.222Z,10.92
2022-11-12T11:28:13.165Z,11.09
2022-11-12T11:33:46.522Z,11.21
2022-11-12T11:39:19.045Z,10.88
2022-11-12T11:44:48.421Z,11.16
2022-11-12T11:50:29.574Z,11.12
2022-11-12T11:55:57.371Z,10.99
2022-11-12T12:01:29.873Z,10.93
2022-11-12T12:07:07.239Z,10.70
2022-11-12T12:12:53.567Z,10.92
2022-11-12T12:18:27.571Z,11.16
2022-11-12T12:23:55.020Z,11.31
2022-11-12T12:29:20.452Z,11.17
2022-11-12T12:34:47.761Z,11.09
2022-11-12T12:40:19.783Z,10.70
2022-11-12T12:45:43.743Z,10.75
2022-11-12T12:51:05.672Z,10.57
2022-11-12T12:56:50.400Z,10.26
2022-11-12T13:02:22.202Z,10.50
2022-11-12T13:07:45.853Z,10.27
2022-11-12T13:13:32.449Z,10.14
2022-11-12T13:19:02.772Z,9.99
2022-11-12T13:25:04.291Z,9.89
2022-11-12T13:30:55.242Z,9.73
2022-11-12T13:36:36.141Z,9.71
2022-11-12T13:42:16.702Z,9.67
2022-11-12T13:47:49.673Z,9.58
2022-11-12T13:53:14.810Z,9.45
2022-11-12T13:58:37.215Z,9.33
2022-11-12T14:03:59.968Z,9.09
2022-11-12T14:09:46.236Z,8.91
2022-11-12T14:15:26.316Z,8.92
2022-11-12T14:20:50.482Z,8.56
2022-11-12T14:26:13.631Z,8.53
2022-11-12T14:31:34.990Z,8.42
2022-11-12T14:36:57.565Z,8.26
2022-11-12T14:42:19.196Z,8.24
2022-11-12T14:47:40.450Z,8.01
2022-11-12T14:53:07.216Z,7.94
2022-11-12T14:58:28.989Z,7.77
2022-11-12T15:03:50.539Z,7.42
2022-11-12T15:09:18.779Z,7.39
2022-11-12T15:14:40.579Z,7.44
2022-11-12T15:20:04.147Z,7.10
2022-11-12T15:25:29.911Z,7.22
2022-11-12T15:31:02.390Z,7.12
2022-11-12T15:36:25.588Z,7.05
2022-11-12T15:41:48.959Z,6.78
2022-11-12T15:47:15.265Z,6.63
2022-11-12T15:52:36.518Z,6.54
2022-11-12T15:57:59.537Z,6.37
2022-11-12T16:03:22.642Z,6.34
2022-11-12T16:08:44.196Z,6.07
2022-11-12T16:14:12.170Z,5.85
2022-11-12T16:19:34.573Z,6.02
2022-11-12T16:24:56.124Z,5.83
2022-11-12T16:30:21.338Z,5.80
2022-11-12T16:35:42.799Z,5.60
2022-11-12T16:41:04.406Z,5.58
2022-11-12T16:46:30.987Z,5.39
2022-11-12T16:51:52.475Z,5.30
2022-11-12T16:57:13.901Z,5.35
2022-11-12T17:02:43.645Z,5.13
2022-11-12T17:08:06.948Z,4.88
2022-11-12T17:13:28.522Z,4.92
2022-11-12T17:18:54.335Z,4.96
2022-11-12T17:24:16.015Z,4.69
2022-11-12T17:29:37.182Z,4.62
2022-11-12T17:35:00.064Z,4.63
2022-11-12T17:40:21.622Z,4.37
2022-11-12T17:45:50.365Z,4.37
2022-11-12T17:51:15.714Z,4.42
2022-11-12T17:56:37.349Z,4.39
2022-11-12T18:01:58.971Z,4.26
2022-11-12T18:07:21.629Z,4.22
2022-11-12T18:12:43.499Z,4.29
2022-11-12T18:18:05.456Z,4.19
2022-11-12T18:23:28.560Z,4.04
2022-11-12T18:28:52.324Z,3.96
2022-11-12T18:34:15.383Z,3.92
2022-11-12T18:39:38.205Z,3.80
2022-11-12T18:44:59.711Z,3.63
2022-11-12T18:50:21.277Z,3.52
2022-11-12T18:55:44.187Z,3.65
2022-11-12T19:01:06.919Z,3.71
2022-11-12T19:06:28.277Z,3.35
2022-11-12T19:11:50.962Z,3.48
2022-11-12T19:17:12.288Z,3.39
2022-11-12T19:22:33.830Z,3.34
2022-11-12T19:27:56.622Z,3.19
2022-11-12T19:33:18.000Z,3.25
2022-11-12T19:38:39.365Z,3.14
2022-11-12T19:44:01.766Z,2.97
2022-11-12T19:49:23.039Z,3.09
2022-11-12T19:54:44.403Z,3.05
2022-11-12T20:00:08.775Z,2.94
2022-11-12T20:05:31.135Z,2.97
2022-11-12T20:10:52.441Z,2.65
2022-11-12T20:16:22.239Z,2.56
2022-11-12T20:21:46.148Z,2.69
2022-11-12T20:27:07.980Z,2.59
2022-11-12T20:32:30.594Z,2.58
2022-11-12T20:37:53.203Z,2.34
2022-11-12T20:43:16.201Z,2.47
2022-11-12T20:48:43.100Z,2.50
2022-11-12T20:54:04.743Z,2.27
2022-11-12T20:59:27.589Z,2.33
2022-11-12T21:04:53.946Z,2.09
2022-11-12T21:10:15.431Z,2.23
2022-11-12T21:15:36.943Z,2.28
2022-11-12T21:21:03.909Z,2.18
2022-11-12T21:26:25.546Z,2.12
2022-11-12T21:31:46.826Z,1.80
2022-11-12T21:37:09.454Z,1.84
2022-11-12T21:42:30.683Z,1.69
2022-11-12T21:47:52.279Z,1.81
2022-11-12T21:53:15.727Z,1.79
2022-11-12T21:58:37.922Z,1.70
2022-11-12T22:04:00.032Z,1.65
2022-11-12T22:09:22.818Z,1.69
2022-11-12T22:14:44.133Z,1.52
2022-11-12T22:20:06.325Z,1.46
2022-11-12T22:25:28.894Z,1.44
2022-11-12T22:30:50.618Z,1.40
2022-11-12T22:36:13.875Z,1.32
2022-11-12T22:41:37.414Z,1.37
2022-11-12T22:46:59.123Z,1.31
2022-11-12T22:52:20.334Z,1.20
2022-11-12T22:57:42.930Z,1.22
2022-11-12T23:03:04.192Z,0.91
2022-11-12T23:08:25.754Z,1.11
2022-11-12T23:13:49.602Z,0.93
2022-11-12T23:19:11.080Z,0.89
2022-11-12T23:24:32.238Z,0.89
2022-11-12T23:29:54.799Z,0.90
2022-11-12T23:35:16.187Z,0.81
2022-11-12T23:40:37.893Z,0.71
2022-11-12T23:46:00.870Z,0.68
2022-11-12T23:51:23.375Z,0.69
2022-11-12T23:56:44.989Z,0.72
